createdAt,value
2019-05-11T00:00:24.301Z,7.40
2019-05-11T00:02:55.878Z,7.05
2019-05-11T00:05:26.560Z,6.95
2019-05-11T00:07:58.748Z,6.80
2019-05-11T00:10:31.954Z,7.60
2019-05-11T00:13:54.554Z,7.00
2019-05-11T00:17:11.425Z,6.90
2019-05-11T00:19:43.483Z,6.90
2019-05-11T00:25:38.623Z,6.33
2019-05-11T00:28:13.029Z,6.50
2019-05-11T00:30:44.838Z,6.67
2019-05-11T00:33:15.693Z,6.40
2019-05-11T00:38:45.862Z,6.30
2019-05-11T00:41:17.181Z,6.80
2019-05-11T00:47:07.301Z,7.30
2019-05-11T00:49:37.829Z,6.83
2019-05-11T00:52:08.465Z,7.45
2019-05-11T00:58:04.498Z,7.58
2019-05-11T01:00:35.753Z,7.08
2019-05-11T01:03:06.507Z,6.83
2019-05-11T01:06:32.838Z,6.70
2019-05-11T01:09:04.689Z,7.00
2019-05-11T01:11:35.659Z,6.80
2019-05-11T01:18:01.042Z,6.03
2019-05-11T01:20:32.688Z,7.08
2019-05-11T01:23:04.279Z,7.53
2019-05-11T01:25:35.520Z,7.47
2019-05-11T01:28:06.105Z,7.47
2019-05-11T01:30:38.780Z,7.20
2019-05-11T01:33:09.476Z,7.78
2019-05-11T01:38:55.340Z,7.20
2019-05-11T01:41:26.408Z,8.65
2019-05-11T01:44:37.144Z,8.35
2019-05-11T01:47:08.538Z,7.72
2019-05-11T01:49:41.606Z,8.05
2019-05-11T01:56:11.918Z,7.92
2019-05-11T01:58:43.795Z,8.68
2019-05-11T02:01:14.338Z,8.95
2019-05-11T02:04:47.868Z,8.30
2019-05-11T02:07:19.837Z,8.00
2019-05-11T02:09:51.567Z,8.23
2019-05-11T02:12:23.532Z,9.18
2019-05-11T02:14:54.774Z,8.20
2019-05-11T02:18:24.743Z,9.35
2019-05-11T02:21:46.859Z,8.85
2019-05-11T02:25:01.484Z,8.43
2019-05-11T02:34:53.904Z,9.23
2019-05-11T02:37:24.996Z,10.45
2019-05-11T02:40:03.458Z,10.48
2019-05-11T02:42:46.962Z,11.00
2019-05-11T02:45:33.595Z,10.63
2019-05-11T02:51:34.818Z,12.33
2019-05-11T02:54:06.656Z,12.82
2019-05-11T02:59:49.873Z,13.58
2019-05-11T03:03:13.443Z,14.47
2019-05-11T03:05:44.210Z,13.98
2019-05-11T03:08:33.433Z,15.20
2019-05-11T03:11:05.073Z,13.75
2019-05-11T03:14:29.189Z,14.35
2019-05-11T03:17:13.863Z,14.03
2019-05-11T03:19:45.461Z,13.95
2019-05-11T03:26:34.637Z,13.83
2019-05-11T03:29:05.681Z,15.30
2019-05-11T03:39:28.590Z,14.73
2019-05-11T03:42:14.059Z,14.98
2019-05-11T03:44:32.260Z,14.95
2019-05-11T03:47:03.213Z,15.18
2019-05-11T03:50:36.656Z,15.18
2019-05-11T03:53:07.567Z,15.38
2019-05-11T03:55:38.525Z,15.28
2019-05-11T03:58:09.872Z,16.17
2019-05-11T04:00:42.439Z,16.35
2019-05-11T04:03:14.105Z,15.45
2019-05-11T04:05:45.264Z,15.18
2019-05-11T04:08:16.308Z,16.23
2019-05-11T04:10:50.936Z,15.95
2019-05-11T04:13:22.048Z,15.88
2019-05-11T04:16:31.862Z,14.93
2019-05-11T04:19:03.474Z,13.60
2019-05-11T04:25:08.114Z,13.22
2019-05-11T04:27:39.547Z,12.13
2019-05-11T04:30:12.325Z,11.65
2019-05-11T04:32:45.756Z,11.57
2019-05-11T04:35:16.926Z,11.10
2019-05-11T04:37:47.947Z,10.23
2019-05-11T04:40:18.757Z,10.90
2019-05-11T04:42:55.989Z,10.03
2019-05-11T04:45:23.501Z,9.53
2019-05-11T04:47:55.584Z,10.38
2019-05-11T04:54:30.245Z,8.65
2019-05-11T04:57:03.321Z,8.78
2019-05-11T04:59:34.360Z,8.88
2019-05-11T05:06:24.706Z,9.10
2019-05-11T05:12:13.977Z,8.03
2019-05-11T05:15:24.224Z,9.50
2019-05-11T05:18:23.638Z,9.40
2019-05-11T05:20:55.418Z,9.45
2019-05-11T05:23:26.912Z,9.48
2019-05-11T05:29:43.585Z,10.80
2019-05-11T05:36:35.157Z,11.33
2019-05-11T05:43:49.287Z,11.12
2019-05-11T05:46:23.116Z,10.55
2019-05-11T05:59:37.139Z,11.50
2019-05-11T06:02:08.137Z,12.07
2019-05-11T06:04:39.157Z,11.85
2019-05-11T06:07:48.032Z,12.13
2019-05-11T06:10:19.026Z,11.55
2019-05-11T06:12:50.590Z,12.07
2019-05-11T06:15:22.902Z,11.65
2019-05-11T06:17:53.417Z,11.18
2019-05-11T06:20:24.353Z,11.28
2019-05-11T06:22:56.104Z,11.08
2019-05-11T06:25:26.575Z,10.82
2019-05-11T06:27:57.340Z,11.28
2019-05-11T06:30:27.796Z,11.30
2019-05-11T06:32:59.249Z,11.45
2019-05-11T06:35:29.860Z,10.50
2019-05-11T06:38:01.556Z,10.90
2019-05-11T06:40:32.043Z,11.55
2019-05-11T06:43:03.298Z,10.65
2019-05-11T06:46:25.554Z,10.93
2019-05-11T06:48:56.449Z,11.25
2019-05-11T06:51:26.897Z,10.75
2019-05-11T06:53:58.410Z,9.73
2019-05-11T06:56:31.479Z,9.10
2019-05-11T06:59:03.190Z,8.18
2019-05-11T07:01:35.371Z,8.60
2019-05-11T07:04:05.893Z,8.93
2019-05-11T07:06:37.142Z,9.05
2019-05-11T07:09:10.373Z,9.25
2019-05-11T07:11:40.943Z,8.58
2019-05-11T07:17:18.553Z,8.83
2019-05-11T07:19:49.244Z,8.85
2019-05-11T07:22:20.717Z,9.15
2019-05-11T07:24:51.554Z,8.55
2019-05-11T07:28:03.599Z,9.78
2019-05-11T07:30:34.831Z,9.28
2019-05-11T07:33:07.997Z,9.25
2019-05-11T07:35:38.471Z,9.35
2019-05-11T07:38:09.998Z,9.28
2019-05-11T07:40:40.591Z,9.33
2019-05-11T07:43:12.095Z,9.15
2019-05-11T07:45:43.160Z,8.80
2019-05-11T07:48:38.765Z,8.50
2019-05-11T07:51:09.333Z,8.45
2019-05-11T07:53:39.852Z,8.18
2019-05-11T07:56:11.618Z,7.97
2019-05-11T07:58:42.444Z,8.25
2019-05-11T08:05:05.271Z,8.25
2019-05-11T08:07:37.844Z,8.33
2019-05-11T08:10:53.474Z,7.33
2019-05-11T08:13:25.232Z,8.03
2019-05-11T08:20:40.246Z,6.75
2019-05-11T08:23:11.938Z,6.03
2019-05-11T08:25:42.989Z,6.85
2019-05-11T08:28:14.023Z,6.05
2019-05-11T08:30:45.011Z,6.53
2019-05-11T08:33:17.741Z,5.10
2019-05-11T08:35:48.529Z,5.67
2019-05-11T08:38:20.728Z,5.90
2019-05-11T08:40:51.642Z,5.80
2019-05-11T08:43:22.712Z,5.53
2019-05-11T08:45:53.304Z,5.42
2019-05-11T08:48:24.460Z,5.50
2019-05-11T08:50:55.082Z,5.30
2019-05-11T08:53:28.434Z,5.17
2019-05-11T08:56:00.400Z,5.42
2019-05-11T09:02:30.182Z,4.28
2019-05-11T09:05:00.969Z,4.60
2019-05-11T09:07:32.199Z,4.47
2019-05-11T09:10:08.132Z,5.15
2019-05-11T09:12:39.101Z,4.40
2019-05-11T09:15:10.952Z,4.20
2019-05-11T09:17:41.845Z,4.65
2019-05-11T09:20:13.528Z,4.95
2019-05-11T09:22:44.480Z,4.80
2019-05-11T09:25:18.363Z,4.58
2019-05-11T09:27:50.221Z,4.78
2019-05-11T09:31:11.204Z,4.85
2019-05-11T09:33:41.674Z,5.70
2019-05-11T09:36:12.260Z,4.72
2019-05-11T09:38:43.725Z,5.15
2019-05-11T09:41:14.219Z,4.67
2019-05-11T09:43:44.838Z,5.75
2019-05-11T09:46:18.555Z,5.12
2019-05-11T09:48:49.086Z,4.67
2019-05-11T09:51:19.682Z,5.25
2019-05-11T09:54:00.942Z,4.87
2019-05-11T09:56:35.004Z,4.35
2019-05-11T09:59:05.740Z,4.65
2019-05-11T10:01:37.854Z,4.70
2019-05-11T10:04:09.101Z,4.67
2019-05-11T10:06:40.934Z,4.75
2019-05-11T10:09:11.890Z,5.15
2019-05-11T10:15:41.524Z,5.83
2019-05-11T10:18:12.249Z,5.75
2019-05-11T10:24:28.251Z,5.17
2019-05-11T10:27:03.678Z,6.00
2019-05-11T10:29:34.246Z,5.85
2019-05-11T10:32:05.085Z,5.15
2019-05-11T10:34:35.659Z,5.33
2019-05-11T10:37:08.527Z,4.90
2019-05-11T10:39:39.463Z,4.58
2019-05-11T10:42:10.847Z,4.10
2019-05-11T10:44:43.060Z,4.28
2019-05-11T10:47:14.417Z,4.17
2019-05-11T10:49:45.451Z,4.67
2019-05-11T10:52:18.050Z,4.15
2019-05-11T10:54:49.078Z,4.00
2019-05-11T10:57:19.491Z,4.33
2019-05-11T10:59:50.493Z,4.22
2019-05-11T11:02:21.074Z,4.25
2019-05-11T11:07:42.065Z,4.20
2019-05-11T11:10:12.826Z,4.33
2019-05-11T11:12:43.703Z,3.95
2019-05-11T11:15:14.179Z,4.10
2019-05-11T11:20:51.340Z,4.20
2019-05-11T11:24:13.529Z,3.80
2019-05-11T11:26:44.498Z,4.83
2019-05-11T11:29:15.223Z,4.47
2019-05-11T11:31:48.168Z,4.60
2019-05-11T11:34:19.715Z,4.37
2019-05-11T11:36:50.926Z,4.42
2019-05-11T11:42:34.819Z,3.90
2019-05-11T11:45:07.993Z,4.08
2019-05-11T11:47:39.065Z,4.17
2019-05-11T11:50:11.838Z,5.00
2019-05-11T11:52:45.014Z,4.42
2019-05-11T11:55:14.939Z,3.77
2019-05-11T11:57:48.460Z,3.58
2019-05-11T12:00:18.471Z,4.30
2019-05-11T12:02:49.384Z,4.58
2019-05-11T12:05:20.098Z,4.03
2019-05-11T12:07:52.070Z,4.20
2019-05-11T12:14:48.015Z,5.12
2019-05-11T12:17:18.651Z,4.55
2019-05-11T12:19:49.516Z,4.40
2019-05-11T12:22:20.444Z,4.67
2019-05-11T12:24:51.886Z,4.33
2019-05-11T12:27:22.527Z,4.20
2019-05-11T12:29:53.269Z,3.80
2019-05-11T12:32:32.334Z,4.50
2019-05-11T12:35:03.250Z,4.70
2019-05-11T12:37:33.814Z,4.90
2019-05-11T12:40:08.233Z,4.72
2019-05-11T12:42:38.893Z,4.47
2019-05-11T12:45:10.831Z,4.67
2019-05-11T12:47:41.329Z,5.22
2019-05-11T12:50:12.665Z,4.70
2019-05-11T12:53:23.406Z,5.05
2019-05-11T12:55:59.077Z,4.92
2019-05-11T12:58:30.382Z,5.12
2019-05-11T13:01:01.496Z,4.87
2019-05-11T13:03:34.485Z,4.62
2019-05-11T13:06:08.191Z,4.67
2019-05-11T13:08:43.991Z,4.70
2019-05-11T13:11:15.125Z,4.97
2019-05-11T13:13:45.653Z,5.50
2019-05-11T13:16:18.515Z,5.22
2019-05-11T13:18:49.022Z,5.40
2019-05-11T13:21:19.687Z,5.00
2019-05-11T13:23:50.207Z,5.10
2019-05-11T13:26:20.885Z,4.75
2019-05-11T13:28:51.691Z,4.30
2019-05-11T13:31:22.603Z,4.62
2019-05-11T13:33:53.125Z,4.50
2019-05-11T13:36:34.501Z,4.45
2019-05-11T13:39:18.129Z,4.40
2019-05-11T13:41:48.937Z,4.78
2019-05-11T13:44:19.342Z,4.30
2019-05-11T13:46:51.453Z,4.00
2019-05-11T13:49:50.494Z,4.58
2019-05-11T13:52:21.556Z,4.30
2019-05-11T13:54:53.883Z,3.80
2019-05-11T13:57:25.332Z,3.72
2019-05-11T13:59:57.942Z,4.17
2019-05-11T14:02:29.824Z,4.37
2019-05-11T14:05:00.448Z,3.90
2019-05-11T14:07:30.794Z,4.17
2019-05-11T14:10:01.909Z,4.22
2019-05-11T14:13:14.045Z,3.87
2019-05-11T14:15:44.669Z,3.87
2019-05-11T14:18:18.158Z,3.58
2019-05-11T14:23:19.401Z,3.85
2019-05-11T14:25:50.313Z,3.75
2019-05-11T14:28:21.544Z,3.92
2019-05-11T14:31:04.777Z,4.15
2019-05-11T14:33:35.925Z,3.77
2019-05-11T14:36:28.162Z,4.03
2019-05-11T14:38:59.432Z,3.87
2019-05-11T14:41:30.059Z,4.10
2019-05-11T14:44:00.663Z,4.00
2019-05-11T14:46:31.391Z,3.70
2019-05-11T14:49:02.835Z,4.30
2019-05-11T14:51:54.055Z,3.22
2019-05-11T14:54:24.782Z,3.40
2019-05-11T14:56:58.593Z,3.60
2019-05-11T14:59:29.510Z,3.90
2019-05-11T15:02:18.097Z,3.62
2019-05-11T15:04:58.658Z,3.65
2019-05-11T15:07:29.985Z,3.40
2019-05-11T15:10:00.693Z,3.30
2019-05-11T15:12:31.245Z,3.10
2019-05-11T15:15:33.241Z,3.00
2019-05-11T15:18:04.266Z,3.20
2019-05-11T15:21:34.985Z,3.20
2019-05-11T15:24:08.760Z,3.00
2019-05-11T15:26:40.027Z,2.83
2019-05-11T15:29:10.850Z,3.37
2019-05-11T15:31:41.763Z,3.42
2019-05-11T15:34:12.884Z,3.40
2019-05-11T15:36:44.130Z,2.40
2019-05-11T15:39:18.183Z,2.80
2019-05-11T15:41:48.905Z,2.72
2019-05-11T15:44:20.531Z,3.02
2019-05-11T15:46:50.876Z,2.27
2019-05-11T15:49:22.101Z,2.80
2019-05-11T15:51:57.928Z,2.77
2019-05-11T15:54:29.064Z,2.30
2019-05-11T15:57:00.594Z,2.77
2019-05-11T15:59:32.000Z,2.40
2019-05-11T16:02:02.587Z,2.62
2019-05-11T16:04:33.864Z,2.25
2019-05-11T16:07:08.072Z,2.67
2019-05-11T16:09:38.174Z,2.20
2019-05-11T16:12:08.872Z,2.47
2019-05-11T16:14:39.587Z,2.12
2019-05-11T16:17:09.972Z,2.40
2019-05-11T16:19:41.095Z,2.67
2019-05-11T16:22:11.981Z,2.77
2019-05-11T17:08:12.248Z,2.20
2019-05-11T17:10:45.103Z,2.40
2019-05-11T17:13:15.261Z,2.77
2019-05-11T17:15:58.313Z,2.20
2019-05-11T17:18:30.683Z,2.15
2019-05-11T17:21:01.017Z,2.20
2019-05-11T17:23:33.803Z,2.45
2019-05-11T17:26:04.038Z,1.90
2019-05-11T17:28:34.265Z,2.15
2019-05-11T17:31:04.496Z,2.08
2019-05-11T17:33:34.752Z,2.30
2019-05-11T17:36:04.987Z,1.90
2019-05-11T17:38:35.214Z,2.30
2019-05-11T17:41:08.480Z,2.10
2019-05-11T17:43:39.242Z,2.25
2019-05-11T17:46:09.389Z,2.12
2019-05-11T17:48:41.192Z,2.05
2019-05-11T17:51:21.310Z,2.45
2019-05-11T17:53:43.324Z,2.02
2019-05-11T17:56:14.206Z,2.58
2019-05-11T17:58:44.652Z,2.42
2019-05-11T18:01:14.949Z,2.00
2019-05-11T18:03:45.200Z,2.50
2019-05-11T18:06:15.431Z,2.00
2019-05-11T18:08:47.709Z,2.55
2019-05-11T18:11:18.539Z,2.35
2019-05-11T18:13:49.233Z,2.25
2019-05-11T18:16:19.479Z,2.55
2019-05-11T18:18:49.740Z,2.50
2019-05-11T18:21:19.994Z,2.40
2019-05-11T18:23:50.275Z,2.33
2019-05-11T18:26:20.513Z,2.22
2019-05-11T18:28:50.783Z,2.12
2019-05-11T18:31:21.055Z,2.33
2019-05-11T18:33:58.446Z,2.60
2019-05-11T18:36:29.007Z,2.25
2019-05-11T18:38:59.429Z,2.50
2019-05-11T18:41:29.933Z,2.30
2019-05-11T18:44:00.616Z,20.45
2019-05-11T18:46:30.831Z,3.27
2019-05-11T18:49:02.622Z,2.62
2019-05-11T18:51:33.135Z,2.58
2019-05-11T18:54:06.091Z,2.40
2019-05-11T18:56:38.206Z,1.92
2019-05-11T18:59:09.147Z,2.30
2019-05-11T19:01:44.183Z,2.50
2019-05-11T19:04:25.672Z,2.30
2019-05-11T19:06:56.514Z,1.90
2019-05-11T19:09:28.407Z,2.12
2019-05-11T19:11:59.420Z,2.12
2019-05-11T19:14:29.988Z,2.92
2019-05-11T19:17:01.462Z,2.30
2019-05-11T19:19:31.605Z,2.40
2019-05-11T19:22:01.974Z,2.42
2019-05-11T19:24:32.225Z,2.30
2019-05-11T19:27:02.679Z,2.47
2019-05-11T19:29:32.932Z,2.50
2019-05-11T19:32:03.325Z,2.72
2019-05-11T19:34:33.572Z,2.52
2019-05-11T19:37:03.816Z,2.83
2019-05-11T19:39:35.005Z,2.98
2019-05-11T19:42:07.602Z,2.67
2019-05-11T19:44:38.589Z,2.40
2019-05-11T19:47:09.039Z,2.30
2019-05-11T19:49:39.200Z,2.60
2019-05-11T19:52:09.369Z,2.83
2019-05-11T19:54:39.522Z,2.60
2019-05-11T19:57:43.568Z,3.27
2019-05-11T20:00:15.067Z,2.45
2019-05-11T20:02:46.300Z,2.52
2019-05-11T20:05:18.374Z,2.60
2019-05-11T20:08:23.620Z,2.35
2019-05-11T20:10:54.105Z,2.95
2019-05-11T20:13:24.390Z,2.58
2019-05-11T20:15:55.047Z,2.87
2019-05-11T20:18:25.277Z,2.80
2019-05-11T20:20:55.940Z,2.60
2019-05-11T20:23:26.182Z,2.33
2019-05-11T20:25:58.214Z,3.00
2019-05-11T20:28:28.674Z,2.60
2019-05-11T20:30:59.148Z,2.90
2019-05-11T20:33:29.369Z,2.67
2019-05-11T20:35:59.571Z,2.67
2019-05-11T20:38:42.105Z,2.00
2019-05-11T20:41:12.487Z,2.72
2019-05-11T20:43:42.802Z,1.90
2019-05-11T20:46:13.076Z,2.12
2019-05-11T20:48:43.909Z,2.40
2019-05-11T20:51:14.072Z,2.10
2019-05-11T20:53:46.317Z,2.40
2019-05-11T20:56:17.795Z,2.30
2019-05-11T20:58:59.201Z,2.30
2019-05-11T21:01:30.048Z,2.42
2019-05-11T21:06:38.265Z,2.30
2019-05-11T21:09:08.475Z,2.20
2019-05-11T21:11:39.349Z,2.58
2019-05-11T21:14:10.429Z,2.52
2019-05-11T21:16:40.748Z,2.65
2019-05-11T21:19:10.971Z,2.60
2019-05-11T21:21:49.981Z,2.83
2019-05-11T21:24:13.185Z,2.80
2019-05-11T21:26:43.686Z,2.70
2019-05-11T21:29:13.915Z,2.62
2019-05-11T21:31:44.058Z,2.62
2019-05-11T21:34:38.393Z,2.22
2019-05-11T21:37:08.725Z,2.83
2019-05-11T21:40:21.944Z,3.00
2019-05-11T21:45:41.827Z,2.75
2019-05-11T21:48:12.292Z,2.87
2019-05-11T21:50:42.507Z,3.00
2019-05-11T21:53:12.755Z,3.10
2019-05-11T21:55:42.964Z,2.85
2019-05-11T21:58:13.166Z,3.15
2019-05-11T22:00:43.544Z,3.25
2019-05-11T22:03:14.182Z,2.62
2019-05-11T22:05:44.796Z,2.90
2019-05-11T22:08:14.927Z,2.67
2019-05-11T22:10:45.771Z,3.17
2019-05-11T22:16:21.508Z,2.98
2019-05-11T22:18:52.475Z,3.02
2019-05-11T22:21:23.349Z,3.15
2019-05-11T22:23:53.868Z,2.70
2019-05-11T22:26:24.211Z,3.30
2019-05-11T22:28:54.857Z,3.20
2019-05-11T22:31:25.039Z,3.10
2019-05-11T22:33:55.354Z,2.80
2019-05-11T22:36:27.962Z,3.22
2019-05-11T22:38:58.745Z,2.87
2019-05-11T22:41:29.139Z,2.80
2019-05-11T22:43:59.748Z,3.08
2019-05-11T22:46:30.231Z,3.22
2019-05-11T22:49:00.472Z,3.02
2019-05-11T22:51:30.678Z,3.42
2019-05-11T22:54:01.059Z,3.30
2019-05-11T22:56:31.200Z,2.90
2019-05-11T22:59:01.497Z,2.90
2019-05-11T23:01:31.627Z,2.87
2019-05-11T23:04:02.027Z,3.30
2019-05-11T23:06:33.078Z,3.37
2019-05-11T23:09:05.056Z,3.25
2019-05-11T23:11:37.790Z,3.10
2019-05-11T23:14:09.912Z,3.12
2019-05-11T23:16:53.989Z,2.80
2019-05-11T23:19:24.181Z,2.83
2019-05-11T23:21:54.523Z,3.35
2019-05-11T23:24:25.473Z,3.33
2019-05-11T23:27:00.669Z,3.12
2019-05-11T23:29:30.881Z,2.90
2019-05-11T23:32:01.447Z,3.15
2019-05-11T23:34:31.635Z,2.70
2019-05-11T23:37:02.090Z,2.42
2019-05-11T23:39:32.769Z,3.10
2019-05-11T23:45:01.034Z,3.33
2019-05-11T23:47:31.172Z,2.55
2019-05-11T23:50:01.919Z,3.27
2019-05-11T23:52:32.118Z,3.55
2019-05-11T23:55:02.295Z,2.98
2019-05-11T23:57:33.281Z,3.50
